Time;durP1;ratioP1;P1;durP2;ratioP2;P2;SDS_P1;SDS_P2;PMS_P1;PMS_P2;Temp;Humidity;BMP_temperature;BMP_pressure;BME280_temperature;BME280_humidity;BME280_pressure;Samples;Min_cycle;Max_cycle;Signal;HPM_P1;HPM_P2
2021/01/29 04:35:23;;;;;;;2.37;1.40;;;;;;;14.71;59.16;97143.41;6895242;28;20267;-81
2021/01/29 04:38:46;;;;;;;1.33;1.33;;;;;;;14.14;60.86;97142.75;6890961;28;20213;-79
2021/01/29 04:42:13;;;;;;;1.57;1.20;;;;;;;14.30;59.92;97113.78;6874984;28;20236;-77
2021/01/29 04:45:54;;;;;;;1.17;1.17;;;;;;;14.21;60.09;97091.03;6864493;28;20189;-78
2021/01/29 04:49:25;;;;;;;1.70;1.23;;;;;;;14.40;59.41;97092.91;6864074;28;20185;-78
2021/01/29 04:53:07;;;;;;;1.33;1.00;;;;;;;14.50;59.34;97102.94;6863617;28;20260;-77
2021/01/29 04:56:57;;;;;;;1.10;1.10;;;;;;;14.00;60.45;97076.59;6863896;28;20197;-78
2021/01/29 05:01:07;;;;;;;1.20;1.20;;;;;;;13.80;61.18;97065.72;6863226;28;20213;-79
2021/01/29 05:04:44;;;;;;;1.97;1.10;;;;;;;14.05;60.62;97043.28;6856696;28;20190;-78
2021/01/29 05:08:19;;;;;;;1.93;1.83;;;;;;;13.88;61.36;97053.53;6862918;28;20193;-78
2021/01/29 05:11:56;;;;;;;1.63;1.53;;;;;;;13.93;60.82;97024.56;6862350;28;20234;-79
2021/01/29 05:16:02;;;;;;;1.77;1.20;;;;;;;13.82;61.68;97043.78;6862835;28;20197;-78
2021/01/29 05:19:49;;;;;;;1.53;1.43;;;;;;;13.90;60.94;97018.84;6843939;28;20256;-80
2021/01/29 05:23:20;;;;;;;1.87;1.40;;;;;;;13.93;60.98;97021.03;6832717;28;20593;-77
2021/01/29 05:27:22;;;;;;;1.40;1.30;;;;;;;13.75;61.72;97026.97;6848045;28;20572;-78
2021/01/29 05:30:57;;;;;;;1.20;1.20;;;;;;;14.02;60.57;97025.66;6862216;28;20222;-78
2021/01/29 05:34:38;;;;;;;1.10;1.10;;;;;;;14.35;59.82;97013.50;6861944;28;20223;-80
2021/01/29 05:38:47;;;;;;;1.83;1.20;;;;;;;13.77;62.05;97019.38;6862407;28;20222;-79
2021/01/29 05:42:22;;;;;;;0.97;0.90;;;;;;;13.60;62.46;97003.38;6858572;28;20234;-78
2021/01/29 05:45:50;;;;;;;1.00;1.00;;;;;;;13.39;63.38;96995.50;6844738;28;20194;-80
2021/01/29 05:49:22;;;;;;;1.07;1.07;;;;;;;12.78;63.69;96888.94;6837344;29;20204;-80
2021/01/29 05:52:59;;;;;;;1.20;1.20;;;;;;;13.83;62.40;96956.84;6849682;28;20757;-80
2021/01/29 05:56:29;;;;;;;1.00;1.00;;;;;;;13.59;62.42;96966.56;6862760;28;20197;-81
2021/01/29 06:00:04;;;;;;;1.20;1.20;;;;;;;13.11;63.51;96931.00;6858144;28;20606;-81
2021/01/29 06:03:44;;;;;;;0.87;0.87;;;;;;;13.19;63.25;96936.69;6866215;28;20594;-80
2021/01/29 06:07:17;;;;;;;2.33;1.10;;;;;;;12.44;64.97;96922.00;6871686;28;20720;-80
2021/01/29 06:11:02;;;;;;;1.17;1.17;;;;;;;12.53;65.20;96947.47;6863563;28;20237;-81
2021/01/29 06:15:03;;;;;;;1.30;1.20;;;;;;;12.51;64.41;96939.63;6865475;28;20237;-79
2021/01/29 06:18:42;;;;;;;1.23;1.17;;;;;;;13.05;63.36;96967.22;6866553;28;20668;-81
2021/01/29 06:22:14;;;;;;;1.10;1.10;;;;;;;12.92;63.63;96967.69;6867665;28;20241;-82
2021/01/29 06:26:04;;;;;;;1.20;1.17;;;;;;;13.29;63.01;96984.63;6870079;28;20228;-80
2021/01/29 06:29:28;;;;;;;0.90;0.90;;;;;;;12.29;64.49;96920.06;6885683;28;20209;-81
2021/01/29 06:33:26;;;;;;;1.27;1.20;;;;;;;13.43;63.27;97056.94;6876380;28;20233;-80
2021/01/29 06:36:53;;;;;;;1.23;1.07;;;;;;;13.37;63.23;97020.09;6867996;28;20205;-82
2021/01/29 06:40:19;;;;;;;1.30;1.30;;;;;;;13.24;63.11;97023.31;6873889;28;20272;-81
2021/01/29 06:43:52;;;;;;;1.10;1.00;;;;;;;13.25;63.52;97035.75;6878335;28;20217;-80
2021/01/29 06:47:23;;;;;;;1.13;1.13;;;;;;;13.09;62.96;97000.78;6892861;28;20232;-80
2021/01/29 06:51:06;;;;;;;1.83;1.73;;;;;;;13.40;62.85;97003.31;6889418;28;20255;-80
2021/01/29 06:54:45;;;;;;;1.63;1.53;;;;;;;13.54;61.96;97001.75;6868096;28;20194;-80
2021/01/29 06:58:26;;;;;;;1.80;1.70;;;;;;;13.41;61.88;97001.44;6866479;28;20537;-80
2021/01/29 07:02:14;;;;;;;1.30;1.30;;;;;;;13.44;62.20;97053.16;6866083;28;20230;-79
2021/01/29 07:05:42;;;;;;;1.20;1.10;;;;;;;13.15;62.24;97022.19;6858920;28;20205;-80
2021/01/29 07:09:11;;;;;;;1.20;1.20;;;;;;;13.67;60.85;97057.28;6864597;28;20635;-80
2021/01/29 07:12:38;;;;;;;1.10;1.10;;;;;;;13.74;61.01;97052.44;6865095;28;20232;-80
2021/01/29 07:16:12;;;;;;;2.73;1.20;;;;;;;13.64;61.06;97068.66;6839210;29;20207;-81
2021/01/29 07:20:12;;;;;;;1.40;1.30;;;;;;;13.75;60.79;97078.44;6861924;28;20201;-80
2021/01/29 07:23:49;;;;;;;1.93;1.33;;;;;;;13.53;59.81;97038.03;6838923;28;20205;-81
2021/01/29 07:27:28;;;;;;;2.47;1.70;;;;;;;13.87;59.71;97092.56;6872022;28;20276;-80
2021/01/29 07:31:14;;;;;;;2.80;2.50;;;;;;;13.96;59.39;97121.56;6873614;28;20232;-80
2021/01/29 07:34:44;;;;;;;2.13;1.93;;;;;;;14.21;58.32;97080.97;6874490;28;20223;-80
2021/01/29 07:38:16;;;;;;;2.13;1.90;;;;;;;13.95;58.21;97098.25;6869937;28;20269;-80
2021/01/29 07:41:51;;;;;;;1.10;1.10;;;;;;;13.94;58.71;97115.59;6870595;28;20238;-80
2021/01/29 07:45:33;;;;;;;1.43;1.37;;;;;;;14.24;57.60;97085.06;6869277;28;20199;-80
2021/01/29 07:49:11;;;;;;;1.13;1.13;;;;;;;14.20;57.56;97103.75;6845613;28;20215;-80
2021/01/29 07:52:45;;;;;;;1.93;1.50;;;;;;;14.52;56.07;97098.88;6868109;28;20788;-80
2021/01/29 07:56:19;;;;;;;1.17;1.17;;;;;;;14.35;55.60;97086.69;6869353;28;20198;-80
2021/01/29 07:59:58;;;;;;;4.53;2.20;;;;;;;13.84;57.43;97101.19;6869252;28;20213;-80
2021/01/29 08:03:32;;;;;;;2.13;1.93;;;;;;;14.31;56.33;97097.28;6865598;28;20238;-80
2021/01/29 08:06:59;;;;;;;1.40;1.30;;;;;;;14.40;55.35;97094.84;6892085;28;20600;-81
2021/01/29 08:10:28;;;;;;;2.50;1.50;;;;;;;14.11;56.42;97104.53;6895837;28;20229;-79
2021/01/29 08:14:00;;;;;;;1.63;1.53;;;;;;;14.65;54.97;97108.38;6895944;28;20202;-80
2021/01/29 08:17:33;;;;;;;1.90;1.80;;;;;;;14.19;55.94;97085.88;6868775;28;20208;-80
2021/01/29 08:21:40;;;;;;;2.10;1.90;;;;;;;13.96;55.49;97093.66;6868770;28;20261;-79
2021/01/29 08:25:10;;;;;;;1.30;1.30;;;;;;;13.80;56.76;97106.34;6849648;28;20211;-80
2021/01/29 08:28:55;;;;;;;1.63;1.53;;;;;;;14.29;55.57;97110.25;6868146;28;20228;-79
2021/01/29 08:32:45;;;;;;;1.53;1.43;;;;;;;14.73;54.75;97110.53;6866626;28;20226;-79
2021/01/29 08:36:36;;;;;;;2.80;2.20;;;;;;;14.58;55.06;97102.44;6868808;28;20197;-81
2021/01/29 08:40:15;;;;;;;1.80;1.70;;;;;;;14.23;55.45;97094.28;6870718;28;20195;-80
2021/01/29 08:43:56;;;;;;;1.90;1.70;;;;;;;14.46;55.72;97056.59;6819534;28;20207;-79
2021/01/29 08:47:22;;;;;;;1.30;1.20;;;;;;;14.70;54.51;97086.69;6883297;28;20198;-82
2021/01/29 08:50:53;;;;;;;1.10;1.00;;;;;;;14.38;55.23;97103.22;6891740;28;20210;-82
2021/01/29 08:54:36;;;;;;;1.00;1.00;;;;;;;14.70;55.01;97113.81;6893196;28;20207;-82
2021/01/29 08:58:09;;;;;;;1.40;1.13;;;;;;;14.42;55.47;97117.06;6893026;28;20236;-81
2021/01/29 09:01:37;;;;;;;1.10;1.10;;;;;;;13.84;56.18;97084.94;6893884;28;20243;-84
2021/01/29 09:05:02;;;;;;;1.50;1.40;;;;;;;14.21;55.73;97127.06;6890767;28;20205;-81
2021/01/29 09:08:25;;;;;;;3.30;1.20;;;;;;;13.92;55.82;97116.94;6893935;28;20211;-86
2021/01/29 09:11:49;;;;;;;1.30;1.20;;;;;;;14.51;54.91;97148.78;6880557;28;20230;-80
2021/01/29 09:15:18;;;;;;;2.43;1.50;;;;;;;14.42;54.23;97145.00;6855398;29;20257;-80
2021/01/29 09:18:44;;;;;;;1.43;1.20;;;;;;;14.67;53.73;97163.16;6883792;28;20672;-79
2021/01/29 09:22:13;;;;;;;1.43;1.30;;;;;;;14.33;52.98;97148.50;6869720;28;20259;-78
2021/01/29 09:25:41;;;;;;;1.30;1.20;;;;;;;14.61;52.51;97150.69;6863888;28;20288;-78
2021/01/29 09:29:10;;;;;;;3.10;1.70;;;;;;;14.92;50.84;97155.84;6865031;28;20682;-78
2021/01/29 09:32:46;;;;;;;1.60;1.50;;;;;;;14.73;50.91;97171.06;6864183;28;20236;-77
2021/01/29 09:36:16;;;;;;;1.90;1.70;;;;;;;15.03;50.52;97168.31;6863809;28;20244;-78
2021/01/29 09:39:41;;;;;;;4.77;2.30;;;;;;;14.91;49.73;97166.97;6866434;28;20255;-78
2021/01/29 09:43:12;;;;;;;3.67;2.13;;;;;;;15.56;48.15;97159.56;6867148;28;20243;-79
2021/01/29 09:46:35;;;;;;;3.40;1.90;;;;;;;15.62;48.37;97171.25;6873538;28;20203;-80
2021/01/29 09:50:01;;;;;;;1.90;1.37;;;;;;;14.76;49.54;97148.00;6881542;28;20205;-79
2021/01/29 09:53:25;;;;;;;1.33;1.30;;;;;;;14.79;49.46;97188.13;6870227;28;20231;-78
2021/01/29 09:56:54;;;;;;;3.23;1.60;;;;;;;15.07;48.90;97176.75;6866429;28;20212;-79
2021/01/29 10:00:18;;;;;;;3.23;1.63;;;;;;;15.08;48.86;97195.47;6866434;28;20221;-78
2021/01/29 10:03:51;;;;;;;2.97;1.30;;;;;;;14.60;48.24;97162.63;6865452;28;20225;-78
2021/01/29 10:07:18;;;;;;;4.50;2.17;;;;;;;14.40;48.65;97195.94;6865167;28;20201;-77
2021/01/29 10:10:48;;;;;;;2.50;1.80;;;;;;;15.22;47.95;97207.41;6865126;28;20713;-78
2021/01/29 10:14:13;;;;;;;3.33;1.97;;;;;;;15.26;46.95;97194.91;6865023;28;20265;-78
2021/01/29 10:17:37;;;;;;;4.37;2.20;;;;;;;15.32;46.33;97207.44;6866174;28;20216;-78
2021/01/29 10:21:05;;;;;;;4.30;2.40;;;;;;;14.94;46.60;97226.13;6864811;28;20251;-78
2021/01/29 10:24:32;;;;;;;5.53;3.03;;;;;;;14.94;46.46;97239.72;6866088;28;20195;-80
2021/01/29 10:27:57;;;;;;;4.57;2.00;;;;;;;14.70;46.64;97247.53;6865175;28;20223;-78
2021/01/29 10:31:21;;;;;;;3.67;1.97;;;;;;;14.43;47.15;97246.13;6863489;28;20287;-78
2021/01/29 10:34:44;;;;;;;3.73;2.07;;;;;;;14.45;46.59;97244.78;6863038;28;20212;-81
2021/01/29 10:38:09;;;;;;;7.27;2.13;;;;;;;15.04;45.05;97248.66;6864452;28;20258;-79
2021/01/29 10:41:35;;;;;;;6.63;3.33;;;;;;;14.83;45.68;97257.88;6865121;28;20234;-78
2021/01/29 10:44:56;;;;;;;4.60;1.93;;;;;;;14.88;43.67;97205.50;6865475;28;20203;-78
2021/01/29 10:48:38;;;;;;;3.60;1.90;;;;;;;15.53;43.29;97254.38;6864468;28;20217;-79
2021/01/29 10:52:03;;;;;;;7.27;1.90;;;;;;;15.27;43.21;97258.97;6866396;28;20221;-80
2021/01/29 10:55:27;;;;;;;5.77;2.50;;;;;;;15.87;42.53;97237.19;6867272;28;20643;-80
2021/01/29 10:58:54;;;;;;;4.73;1.90;;;;;;;16.02;42.09;97222.72;6862875;28;20311;-79
2021/01/29 11:02:23;;;;;;;4.57;1.80;;;;;;;15.95;41.84;97260.25;6862751;28;20235;-79
2021/01/29 11:05:46;;;;;;;5.53;2.50;;;;;;;15.88;42.34;97257.03;6863117;28;20190;-79
2021/01/29 11:09:16;;;;;;;4.77;1.60;;;;;;;16.14;41.76;97259.38;6862211;28;20386;-80
2021/01/29 11:12:40;;;;;;;2.53;1.57;;;;;;;15.43;41.76;97137.59;6862369;28;20227;-78
2021/01/29 11:16:05;;;;;;;4.33;1.83;;;;;;;15.96;41.44;97248.31;6863943;28;20214;-78
2021/01/29 11:19:33;;;;;;;4.20;2.07;;;;;;;15.31;43.27;97259.25;6864903;28;20683;-79
2021/01/29 11:23:02;;;;;;;6.17;2.07;;;;;;;14.93;43.43;97244.31;6864238;28;20229;-81
2021/01/29 11:26:27;;;;;;;7.37;2.20;;;;;;;15.10;44.63;97247.56;6864228;28;20635;-81
2021/01/29 11:29:54;;;;;;;4.93;2.00;;;;;;;15.20;44.49;97258.44;6864093;28;20206;-79
2021/01/29 11:33:23;;;;;;;5.13;2.07;;;;;;;15.19;44.37;97256.00;6862726;28;20290;-79
2021/01/29 11:36:47;;;;;;;13.53;2.20;;;;;;;15.33;44.16;97247.06;6861917;28;20194;-78
2021/01/29 11:40:15;;;;;;;3.53;1.83;;;;;;;15.07;44.42;97279.88;6862152;28;20210;-78
2021/01/29 11:43:39;;;;;;;5.10;2.00;;;;;;;15.19;43.84;97223.41;6862540;28;20210;-79
2021/01/29 11:47:03;;;;;;;2.97;1.60;;;;;;;14.76;44.59;97256.50;6862530;28;20656;-79
2021/01/29 11:50:32;;;;;;;3.57;2.00;;;;;;;15.13;44.69;97274.19;6858798;28;20245;-80
2021/01/29 11:54:02;;;;;;;3.40;1.60;;;;;;;15.10;44.91;97266.56;6847323;28;20202;-79
2021/01/29 11:57:35;;;;;;;2.13;1.70;;;;;;;14.55;45.89;97258.38;6850759;28;20983;-80
2021/01/29 12:01:00;;;;;;;3.13;1.70;;;;;;;14.66;45.40;97241.03;6855220;28;20304;-79
2021/01/29 12:04:25;;;;;;;8.40;4.87;;;;;;;15.16;44.95;97270.94;6861075;28;20215;-81
2021/01/29 12:07:52;;;;;;;21.43;9.70;;;;;;;15.06;45.11;97265.50;6845693;28;20654;-80
2021/01/29 12:11:22;;;;;;;5.33;2.47;;;;;;;15.30;44.32;97249.47;6852828;28;20226;-81
2021/01/29 12:14:55;;;;;;;2.37;1.70;;;;;;;15.11;44.92;97245.69;6837525;29;20210;-80
2021/01/29 12:18:17;;;;;;;5.97;2.10;;;;;;;15.46;44.00;97246.50;6861409;28;20193;-79
2021/01/29 12:21:45;;;;;;;3.73;2.30;;;;;;;15.25;44.78;97219.63;6866707;28;20320;-80
2021/01/29 12:25:42;;;;;;;4.50;1.90;;;;;;;14.96;45.06;97197.66;6867258;28;20558;-80
2021/01/29 12:29:10;;;;;;;5.20;1.90;;;;;;;14.53;45.37;97238.84;6863058;28;20209;-80
2021/01/29 12:32:47;;;;;;;6.60;2.20;;;;;;;14.62;44.78;97233.72;6861979;28;20250;-78
2021/01/29 12:36:10;;;;;;;7.53;2.37;;;;;;;15.59;43.88;97235.09;6839908;29;20222;-78
2021/01/29 12:39:36;;;;;;;5.20;2.10;;;;;;;15.07;43.63;97222.88;6853914;28;20321;-80
2021/01/29 12:43:02;;;;;;;4.93;1.97;;;;;;;14.83;43.69;97235.34;6865401;28;20234;-79
2021/01/29 12:46:27;;;;;;;5.80;2.00;;;;;;;14.50;44.21;97217.66;6865793;28;20208;-80
2021/01/29 12:49:52;;;;;;;7.93;2.30;;;;;;;14.59;44.12;97171.84;6866047;28;20210;-79
2021/01/29 12:53:15;;;;;;;5.17;2.00;;;;;;;15.32;43.00;97180.28;6865589;28;20221;-78
2021/01/29 12:56:52;;;;;;;5.80;2.33;;;;;;;15.04;43.88;97223.44;6852719;28;20578;-78
2021/01/29 13:00:17;;;;;;;6.03;2.37;;;;;;;14.88;45.26;97210.94;6849828;28;20197;-79
2021/01/29 13:03:49;;;;;;;3.57;2.10;;;;;;;14.74;45.39;97215.28;6864871;28;20232;-80
2021/01/29 13:07:15;;;;;;;5.13;1.97;;;;;;;14.72;44.91;97218.25;6865037;28;20271;-78
2021/01/29 13:10:41;;;;;;;6.57;3.57;;;;;;;14.92;45.12;97225.59;6863813;28;20316;-79
2021/01/29 13:14:09;;;;;;;5.50;2.10;;;;;;;15.12;44.53;97199.28;6864883;28;20206;-78
2021/01/29 13:17:33;;;;;;;3.80;1.70;;;;;;;15.09;44.49;97212.56;6863834;28;20189;-78
2021/01/29 13:21:07;;;;;;;4.23;1.63;;;;;;;14.41;46.21;97215.75;6862561;28;20239;-78
2021/01/29 13:24:29;;;;;;;2.30;1.70;;;;;;;14.44;46.26;97209.78;6864395;28;20455;-77
2021/01/29 13:27:56;;;;;;;2.90;1.50;;;;;;;14.47;45.93;97220.09;6862615;28;20213;-78
2021/01/29 13:31:21;;;;;;;2.13;1.57;;;;;;;14.12;47.37;97214.56;6862675;28;20315;-80
2021/01/29 13:34:43;;;;;;;2.57;1.63;;;;;;;14.21;47.79;97186.69;6862235;28;20255;-78
2021/01/29 13:38:08;;;;;;;3.40;1.37;;;;;;;14.70;46.55;97214.19;6862880;28;20651;-78
2021/01/29 13:41:38;;;;;;;2.10;1.30;;;;;;;15.09;45.62;97215.28;6858943;28;20230;-78
2021/01/29 13:45:08;;;;;;;1.67;1.57;;;;;;;14.64;46.27;97216.06;6862050;28;20212;-81
2021/01/29 13:48:30;;;;;;;4.20;1.47;;;;;;;14.51;46.45;97194.09;6870451;28;20257;-79
2021/01/29 13:51:52;;;;;;;1.77;1.37;;;;;;;14.29;47.08;97169.91;6868940;28;20233;-80
2021/01/29 13:55:23;;;;;;;1.60;1.20;;;;;;;14.34;47.63;97204.34;6867790;28;20261;-80
2021/01/29 13:58:46;;;;;;;1.20;1.10;;;;;;;14.49;47.55;97201.66;6877036;28;20210;-82
2021/01/29 14:02:23;;;;;;;1.47;1.20;;;;;;;14.68;46.61;97156.69;6884769;28;20239;-81
2021/01/29 14:05:46;;;;;;;2.03;1.30;;;;;;;14.71;47.03;97213.09;6869476;28;20224;-80
2021/01/29 14:09:07;;;;;;;1.40;1.30;;;;;;;14.85;46.73;97176.19;6863923;28;20201;-79
2021/01/29 14:12:38;;;;;;;1.83;1.30;;;;;;;14.43;48.35;97195.44;6862894;28;20312;-81
2021/01/29 14:16:05;;;;;;;2.10;1.43;;;;;;;14.83;47.11;97184.63;6859487;28;20216;-79
2021/01/29 14:19:34;;;;;;;1.70;1.43;;;;;;;14.67;47.92;97203.84;6862854;28;20755;-79
2021/01/29 14:23:04;;;;;;;2.57;1.30;;;;;;;14.94;47.07;97188.16;6862842;28;20242;-79
2021/01/29 14:26:34;;;;;;;2.60;1.40;;;;;;;14.45;48.02;97182.41;6865787;28;20696;-79
2021/01/29 14:30:04;;;;;;;3.10;1.60;;;;;;;14.63;47.41;97192.72;6868364;28;20576;-80
2021/01/29 14:33:31;;;;;;;5.40;2.80;;;;;;;14.50;49.75;97176.16;6861205;28;20226;-79
2021/01/29 14:36:59;;;;;;;3.73;1.80;;;;;;;13.81;52.73;97205.47;6862080;28;20202;-78
2021/01/29 14:40:32;;;;;;;4.53;2.40;;;;;;;14.21;52.28;97213.00;6861810;28;20200;-80
2021/01/29 14:44:20;;;;;;;4.43;1.60;;;;;;;14.18;53.28;97208.91;6861658;28;20204;-79
2021/01/29 14:47:57;;;;;;;3.43;1.80;;;;;;;14.34;53.88;97199.72;6856307;28;20205;-79
2021/01/29 14:51:25;;;;;;;4.47;2.13;;;;;;;14.38;52.47;97205.44;6858812;28;20230;-79
2021/01/29 14:54:52;;;;;;;6.93;2.87;;;;;;;14.32;53.51;97191.06;6858018;28;20748;-79
2021/01/29 14:58:15;;;;;;;3.13;1.70;;;;;;;14.35;53.11;97214.13;6859941;28;20210;-80
2021/01/29 15:01:39;;;;;;;3.30;1.70;;;;;;;14.44;52.39;97197.06;6874041;28;20257;-79
2021/01/29 15:05:03;;;;;;;5.60;2.13;;;;;;;14.82;50.84;97182.97;6860944;28;20218;-81
2021/01/29 15:08:28;;;;;;;2.00;1.80;;;;;;;14.36;51.32;97188.63;6861771;28;20212;-81
2021/01/29 15:11:53;;;;;;;4.43;2.77;;;;;;;13.95;53.66;97205.81;6868336;28;20223;-78
2021/01/29 15:15:34;;;;;;;6.57;2.20;;;;;;;14.25;54.17;97200.53;6859898;28;20242;-79
2021/01/29 15:18:55;;;;;;;5.20;2.40;;;;;;;14.26;54.55;97215.69;6863188;28;20210;-80
2021/01/29 15:22:22;;;;;;;8.83;5.07;;;;;;;14.09;56.31;97226.72;6861423;28;20237;-79
2021/01/29 15:26:04;;;;;;;4.47;2.23;;;;;;;13.05;59.63;97229.63;6864748;28;20231;-78
2021/01/29 15:29:25;;;;;;;3.00;2.10;;;;;;;12.94;59.02;97252.25;6859959;28;20216;-78
2021/01/29 15:32:48;;;;;;;3.93;2.20;;;;;;;12.46;60.28;97236.91;6858544;28;20229;-78
2021/01/29 15:36:29;;;;;;;5.20;2.40;;;;;;;12.80;60.94;97249.13;6854211;28;20201;-78
2021/01/29 15:40:06;;;;;;;4.70;3.47;;;;;;;13.24;59.83;97228.97;6870442;28;20666;-78
2021/01/29 15:43:49;;;;;;;6.40;2.93;;;;;;;13.55;58.97;97225.38;6863774;28;20294;-80
2021/01/29 15:47:56;;;;;;;5.43;2.70;;;;;;;14.12;56.71;97228.09;6862799;28;20226;-80
2021/01/29 15:51:17;;;;;;;4.17;2.20;;;;;;;13.97;56.20;97179.25;6839884;29;20221;-79
2021/01/29 15:54:45;;;;;;;6.50;2.90;;;;;;;13.47;57.42;97214.25;6844471;28;20204;-81
2021/01/29 15:58:09;;;;;;;4.23;2.70;;;;;;;13.30;58.00;97232.53;6866708;28;20204;-79
2021/01/29 16:01:39;;;;;;;8.10;7.40;;;;;;;12.88;57.93;97175.66;6866976;28;20283;-80
2021/01/29 16:05:01;;;;;;;5.67;3.90;;;;;;;12.85;58.45;97222.13;6866648;28;20193;-81
2021/01/29 16:08:28;;;;;;;5.60;3.07;;;;;;;12.89;55.65;97220.56;6868919;28;20685;-80
2021/01/29 16:11:49;;;;;;;4.33;2.83;;;;;;;12.61;55.66;97214.59;6869721;28;20724;-80
2021/01/29 16:15:20;;;;;;;8.97;4.47;;;;;;;12.87;55.55;97248.94;6866799;28;20240;-79
2021/01/29 16:18:49;;;;;;;4.47;3.03;;;;;;;12.63;55.07;97253.03;6867479;28;20279;-79
2021/01/29 16:22:12;;;;;;;2.87;1.80;;;;;;;12.88;54.39;97261.38;6867029;28;20229;-78
2021/01/29 16:25:35;;;;;;;3.10;2.13;;;;;;;12.55;55.39;97273.22;6867095;28;20212;-80
2021/01/29 16:29:03;;;;;;;2.20;2.00;;;;;;;12.20;55.72;97266.59;6865379;28;20201;-78
2021/01/29 16:32:27;;;;;;;3.10;2.47;;;;;;;12.29;55.49;97232.66;6859420;28;20241;-78
2021/01/29 16:35:57;;;;;;;1.90;1.80;;;;;;;12.14;56.13;97254.09;6840816;28;20209;-79
2021/01/29 16:39:22;;;;;;;4.73;2.87;;;;;;;12.42;54.70;97248.47;6857362;28;20243;-79
2021/01/29 16:42:44;;;;;;;4.90;4.40;;;;;;;12.56;53.94;97242.41;6865076;28;20229;-81
2021/01/29 16:46:25;;;;;;;1.70;1.60;;;;;;;12.19;55.09;97237.94;6866886;28;20205;-78
2021/01/29 16:50:01;;;;;;;2.70;2.00;;;;;;;11.85;54.57;97215.69;6864038;28;20642;-80
2021/01/29 16:53:25;;;;;;;2.20;2.00;;;;;;;12.48;53.84;97258.28;6889641;28;20264;-81
2021/01/29 16:56:46;;;;;;;2.50;1.70;;;;;;;12.35;54.30;97258.69;6868631;28;20216;-79
2021/01/29 17:00:08;;;;;;;3.10;2.40;;;;;;;12.49;53.90;97238.28;6866711;28;20201;-79
2021/01/29 17:03:37;;;;;;;2.43;2.23;;;;;;;12.36;54.10;97250.31;6864390;28;20244;-79
2021/01/29 17:07:01;;;;;;;3.60;2.40;;;;;;;12.37;55.52;97253.81;6864301;28;20217;-80
2021/01/29 17:10:30;;;;;;;1.50;1.50;;;;;;;12.59;54.12;97227.56;6864002;28;20213;-79
2021/01/29 17:13:51;;;;;;;2.00;1.90;;;;;;;11.82;57.22;97253.16;6865493;28;20757;-79
2021/01/29 17:17:15;;;;;;;4.53;2.30;;;;;;;11.75;57.02;97237.16;6850229;28;20269;-79
2021/01/29 17:20:36;;;;;;;4.17;2.27;;;;;;;12.03;56.25;97199.16;6863077;28;20277;-79
2021/01/29 17:24:02;;;;;;;4.47;2.00;;;;;;;12.20;57.47;97217.97;6866301;28;20204;-79
2021/01/29 17:27:24;;;;;;;4.53;4.13;;;;;;;12.64;56.50;97233.03;6864350;28;20208;-78
2021/01/29 17:30:51;;;;;;;4.27;2.20;;;;;;;12.19;56.84;97235.25;6866800;28;20238;-79
2021/01/29 17:34:15;;;;;;;7.70;4.37;;;;;;;12.11;57.91;97246.50;6886468;28;20243;-80
2021/01/29 17:37:37;;;;;;;4.43;2.07;;;;;;;12.06;57.74;97255.38;6876732;28;20216;-80
2021/01/29 17:41:01;;;;;;;4.50;2.73;;;;;;;12.30;56.75;97243.22;6863714;28;20611;-78
2021/01/29 17:44:27;;;;;;;8.77;6.93;;;;;;;13.02;54.66;97243.66;6854026;28;20221;-81
2021/01/29 17:47:48;;;;;;;3.77;2.10;;;;;;;12.65;55.29;97235.50;6858605;28;20686;-78
2021/01/29 17:51:25;;;;;;;4.03;3.23;;;;;;;12.58;55.06;97217.84;6865600;28;20229;-78
2021/01/29 17:54:47;;;;;;;2.70;1.60;;;;;;;12.49;55.22;97219.34;6885934;28;20205;-80
2021/01/29 17:58:24;;;;;;;2.17;1.87;;;;;;;12.45;56.21;97235.28;6874827;28;20239;-80
2021/01/29 18:01:48;;;;;;;2.77;1.80;;;;;;;12.59;55.80;97249.19;6884891;28;20235;-80
2021/01/29 18:05:12;;;;;;;3.90;2.83;;;;;;;12.41;57.18;97260.38;6853914;28;20205;-80
2021/01/29 18:08:45;;;;;;;3.03;2.03;;;;;;;12.15;57.78;97237.66;6882200;28;20208;-80
2021/01/29 18:12:12;;;;;;;3.87;2.30;;;;;;;12.42;57.26;97253.88;6891776;28;20623;-80
2021/01/29 18:15:41;;;;;;;3.17;2.10;;;;;;;12.00;58.53;97253.69;6873157;28;20236;-80
2021/01/29 18:19:03;;;;;;;3.53;2.10;;;;;;;12.26;57.74;97225.88;6872053;28;20583;-81
2021/01/29 18:22:25;;;;;;;5.07;2.27;;;;;;;12.06;58.25;97222.97;6889642;28;20231;-80
2021/01/29 18:25:46;;;;;;;3.33;2.40;;;;;;;11.59;58.74;97232.63;6883086;28;20208;-80
2021/01/29 18:29:09;;;;;;;3.67;2.10;;;;;;;12.08;57.72;97196.50;6857743;28;20212;-80
2021/01/29 18:32:30;;;;;;;2.07;1.93;;;;;;;11.42;59.86;97247.19;6874105;28;20256;-80
2021/01/29 18:35:52;;;;;;;2.30;2.10;;;;;;;11.64;59.13;97199.47;6866725;28;20752;-79
2021/01/29 18:39:14;;;;;;;6.43;3.13;;;;;;;11.64;59.11;97202.19;6875484;28;20556;-80
2021/01/29 18:42:35;;;;;;;4.40;2.10;;;;;;;11.19;59.68;97221.22;6889280;28;20288;-80
2021/01/29 18:45:58;;;;;;;2.30;2.00;;;;;;;11.67;58.90;97259.19;6873980;28;20216;-80
2021/01/29 18:49:19;;;;;;;3.33;2.10;;;;;;;11.16;60.16;97254.06;6861208;28;20205;-81
2021/01/29 18:52:41;;;;;;;2.20;2.00;;;;;;;11.59;59.49;97243.44;6861139;28;20607;-81
2021/01/29 18:56:02;;;;;;;2.67;2.00;;;;;;;11.54;59.24;97256.81;6861874;28;20209;-81
2021/01/29 18:59:28;;;;;;;5.40;3.30;;;;;;;11.59;60.08;97234.50;6863889;28;20209;-81
2021/01/29 19:02:59;;;;;;;6.20;3.10;;;;;;;10.92;59.50;97160.94;6866028;28;20240;-81
2021/01/29 19:06:20;;;;;;;2.70;2.20;;;;;;;11.35;59.80;97204.19;6867489;28;20193;-80
2021/01/29 19:09:42;;;;;;;3.47;2.33;;;;;;;12.16;58.50;97279.00;6865714;28;20209;-80
2021/01/29 19:13:17;;;;;;;3.33;2.10;;;;;;;11.69;59.07;97261.63;6865615;28;20239;-81
2021/01/29 19:16:38;;;;;;;3.50;2.40;;;;;;;12.29;58.23;97265.94;6869996;28;20237;-81
2021/01/29 19:20:00;;;;;;;2.77;1.93;;;;;;;12.15;58.06;97274.66;6870831;28;20748;-80
2021/01/29 19:23:21;;;;;;;4.23;2.57;;;;;;;12.12;58.27;97251.66;6869814;28;20594;-80
2021/01/29 19:26:43;;;;;;;2.50;2.10;;;;;;;12.01;58.97;97262.59;6865225;28;20206;-80
2021/01/29 19:30:06;;;;;;;4.87;2.83;;;;;;;12.32;57.94;97261.88;6845135;29;20239;-80
2021/01/29 19:33:27;;;;;;;3.87;2.40;;;;;;;12.04;58.63;97267.50;6845352;28;20710;-80
2021/01/29 19:36:48;;;;;;;2.23;2.03;;;;;;;11.86;58.02;97194.91;6846550;29;20615;-80
2021/01/29 19:40:10;;;;;;;3.20;2.30;;;;;;;12.52;56.87;97260.19;6861676;28;20625;-80
2021/01/29 19:43:34;;;;;;;2.47;2.03;;;;;;;12.40;57.97;97253.34;6871361;28;20236;-80
2021/01/29 19:46:56;;;;;;;2.03;1.93;;;;;;;11.95;57.85;97194.22;6870963;28;20200;-80
2021/01/29 19:50:18;;;;;;;2.20;2.00;;;;;;;12.10;58.68;97271.91;6871288;28;20209;-80
2021/01/29 19:53:39;;;;;;;3.17;1.90;;;;;;;12.20;58.39;97278.22;6871056;28;20960;-80
2021/01/29 19:57:04;;;;;;;2.10;2.00;;;;;;;12.54;57.52;97279.72;6871776;28;20562;-80
2021/01/29 20:00:29;;;;;;;2.20;2.00;;;;;;;12.58;57.32;97301.66;6871091;28;20612;-80
2021/01/29 20:03:50;;;;;;;2.33;2.07;;;;;;;12.29;58.04;97284.00;6870689;28;20721;-80
2021/01/29 20:07:11;;;;;;;1.93;1.83;;;;;;;12.10;58.37;97280.00;6870732;28;20958;-80
2021/01/29 20:10:36;;;;;;;6.67;2.20;;;;;;;12.53;58.08;97301.59;6868913;28;20263;-80
2021/01/29 20:13:57;;;;;;;4.20;1.97;;;;;;;12.37;57.94;97310.56;6870328;28;20205;-80
2021/01/29 20:17:19;;;;;;;3.60;2.40;;;;;;;12.76;56.56;97298.59;6870867;28;20222;-80
2021/01/29 20:20:41;;;;;;;3.37;2.00;;;;;;;12.01;57.85;97298.53;6871608;28;20232;-80
2021/01/29 20:24:02;;;;;;;3.33;2.00;;;;;;;12.45;57.53;97313.66;6873038;28;20292;-80
2021/01/29 20:27:23;;;;;;;3.47;1.80;;;;;;;12.21;57.89;97306.09;6870863;28;20205;-80
2021/01/29 20:30:46;;;;;;;2.40;2.10;;;;;;;12.23;56.96;97269.59;6867697;28;20235;-80
2021/01/29 20:34:08;;;;;;;2.30;1.67;;;;;;;11.59;59.53;97312.78;6871785;28;20216;-81
2021/01/29 20:37:30;;;;;;;2.17;1.97;;;;;;;11.84;58.62;97323.94;6872293;28;20666;-79
2021/01/29 20:40:51;;;;;;;3.67;2.27;;;;;;;12.09;57.98;97295.38;6867148;28;20311;-80
2021/01/29 20:44:13;;;;;;;2.13;1.67;;;;;;;11.99;58.42;97316.84;6871014;28;20243;-79
2021/01/29 20:47:37;;;;;;;2.67;2.10;;;;;;;12.09;58.20;97327.78;6872522;28;20588;-80
2021/01/29 20:51:00;;;;;;;1.97;1.87;;;;;;;12.13;57.91;97328.13;6860017;28;20233;-80
2021/01/29 20:54:21;;;;;;;2.77;1.90;;;;;;;11.88;58.13;97338.59;6867848;28;20215;-80
2021/01/29 20:57:42;;;;;;;1.83;1.73;;;;;;;12.13;57.78;97338.91;6867252;28;20688;-80
2021/01/29 21:01:23;;;;;;;2.33;1.90;;;;;;;12.10;57.67;97342.13;6862614;28;20232;-82